1881 NOT_NAMED (1881041S13082)


IBTrACS version v04r00. Visit IBTrACS website for data access.
Please direct all questions to the IBTrACS Q and A forum

Storm track - Intensity - Wind Radii - Intensity Data - Source Data - All data

Summary Information

Storm ID 1881041S13082
Start Feb 10 00Z
End Feb 19 00Z
ATCF IDs
Track status Best track data.

Storm track plot

Map of storm track

Intensity plots

No Intensity information for this storm


Radial wind information

No radial wind information for this storm


Position and Intensity Table

BASIN ISO_TIME_________ NATURE LAT LON
degrees north degrees east
SI 1881-02-10 00:00:00 TS -13.30 81.70
SI 03:00:00 TS -13.40 81.40
SI 06:00:00 TS -13.50 81.10
SI 09:00:00 TS -13.60 80.81
SI 12:00:00 TS -13.70 80.50
SI 15:00:00 TS -13.79 80.15
SI 18:00:00 TS -13.90 79.80
SI 21:00:00 TS -14.04 79.49
SI 1881-02-11 00:00:00 TS -14.20 79.20
SI 03:00:00 TS -14.36 78.90
SI 06:00:00 TS -14.50 78.60
SI 09:00:00 TS -14.60 78.30
SI 12:00:00 TS -14.70 78.00
SI 15:00:00 TS -14.85 77.71
SI 18:00:00 TS -15.00 77.40
SI 21:00:00 TS -15.10 77.06
SI 1881-02-12 00:00:00 TS -15.20 76.70
SI 03:00:00 TS -15.34 76.30
SI 06:00:00 TS -15.50 75.90
SI 09:00:00 TS -15.66 75.53
SI 12:00:00 TS -15.80 75.20
SI 15:00:00 TS -15.90 74.89
SI 18:00:00 TS -16.00 74.60
SI 21:00:00 TS -16.14 74.30
SI 1881-02-13 00:00:00 TS -16.30 74.00
SI 03:00:00 TS -16.45 73.70
SI 06:00:00 TS -16.60 73.40
SI 09:00:00 TS -16.75 73.10
SI 12:00:00 TS -16.90 72.80
SI 15:00:00 TS -17.06 72.50
SI 18:00:00 TS -17.20 72.20
SI 21:00:00 TS -17.29 71.93
SI 1881-02-14 00:00:00 TS -17.40 71.60
SI 03:00:00 TS -17.58 71.12
SI 06:00:00 TS -17.80 70.60
SI 09:00:00 TS -18.05 70.15
SI 12:00:00 TS -18.30 69.70
SI 15:00:00 TS -18.50 69.21
SI 18:00:00 TS -18.70 68.70
SI 21:00:00 TS -18.95 68.18
SI 1881-02-15 00:00:00 TS -19.20 67.70
SI 03:00:00 TS -19.41 67.33
SI 06:00:00 TS -19.60 67.00
SI 09:00:00 TS -19.80 66.61
SI 12:00:00 TS -20.00 66.20
SI 15:00:00 TS -20.21 65.80
SI 18:00:00 TS -20.40 65.40
SI 21:00:00 TS -20.55 65.02
SI 1881-02-16 00:00:00 TS -20.70 64.60
SI 03:00:00 TS -20.89 64.06
SI 06:00:00 TS -21.10 63.50
SI 09:00:00 TS -21.35 62.99
SI 12:00:00 TS -21.60 62.50
SI 15:00:00 TS -21.80 61.99
SI 18:00:00 TS -22.00 61.50
SI 21:00:00 TS -22.25 61.03
SI 1881-02-17 00:00:00 TS -22.50 60.60
SI 03:00:00 TS -22.71 60.18
SI 06:00:00 TS -22.90 59.80
SI 09:00:00 TS -23.09 59.46
SI 12:00:00 TS -23.30 59.10
SI 15:00:00 TS -23.54 58.66
SI 18:00:00 TS -23.80 58.20
SI 21:00:00 TS -24.05 57.78
SI 1881-02-18 00:00:00 TS -24.30 57.40
SI 03:00:00 TS -24.56 57.04
SI 06:00:00 TS -24.80 56.70
SI 09:00:00 TS -25.00 56.35
SI 12:00:00 TS -25.20 56.00
SI 15:00:00 TS -25.45 55.66
SI 18:00:00 TS -25.70 55.30
SI 21:00:00 TS -25.91 54.91
SI 1881-02-19 00:00:00 TS -26.10 54.50

Source Information

Agency Information
USA
TOKYO
CMA
HKO
NEWDELHI
REUNION
BOM
NADI
WELLINGTON
DS824 s_hem.dat:17:NOT NAMED
TD9636
TD9635
NEUMANN
MLC

All available IBTrACS Data

SEASON BASIN SUBBASIN ISO_TIME_________ NATURE LAT LON DIST2LAND LANDFALL IFLAG USA SSHS DS824 LAT DS824 LON DS824 STAGE STORM SPEED STORM DIR
Year degrees north degrees east km km 1 degrees north degrees east kts degrees
1881 SI MM 1881-02-10 00:00:00 TS -13.30 81.70 2154 2153 _________O____ -1 -13.30 81.70 TC 6 251
1881 SI MM 03:00:00 TS -13.40 81.40 2164 2163 _________P____ -1 -13.40 81.40 TC 6 251
1881 SI MM 06:00:00 TS -13.50 81.10 2174 2173 _________O____ -1 -13.50 81.10 TC 6 251
1881 SI MM 09:00:00 TS -13.60 80.81 2184 2184 _________P____ -1 -13.60 80.81 TC 6 251
1881 SI MM 12:00:00 TS -13.70 80.50 2195 2195 _________O____ -1 -13.70 80.50 TC 7 253
1881 SI MM 15:00:00 TS -13.79 80.15 2207 2207 _________P____ -1 -13.79 80.15 TC 7 254
1881 SI MM 18:00:00 TS -13.90 79.80 2220 2220 _________O____ -1 -13.90 79.80 TC 7 249
1881 SI MM 21:00:00 TS -14.04 79.49 2232 2232 _________P____ -1 -14.04 79.49 TC 7 243
1881 SI MM 1881-02-11 00:00:00 TS -14.20 79.20 2257 2257 _________O____ -1 -14.20 79.20 TC 7 241
1881 SI MM 03:00:00 TS -14.36 78.90 2281 2281 _________P____ -1 -14.36 78.90 TC 7 243
1881 SI MM 06:00:00 TS -14.50 78.60 2296 2264 _________O____ -1 -14.50 78.60 TC 6 247
1881 SI MM 09:00:00 TS -14.60 78.30 2264 2230 _________P____ -1 -14.60 78.30 TC 6 251
1881 SI MM 12:00:00 TS -14.70 78.00 2230 2196 _________O____ -1 -14.70 78.00 TC 6 246
1881 SI MM 15:00:00 TS -14.85 77.71 2196 2158 _________P____ -1 -14.85 77.71 TC 7 243
1881 SI MM 18:00:00 TS -15.00 77.40 2158 2124 _________O____ -1 -15.00 77.40 TC 7 248
1881 SI MM 21:00:00 TS -15.10 77.06 2124 2079 _________P____ -1 -15.10 77.06 TC 7 254
1881 SI MM 1881-02-12 00:00:00 TS -15.20 76.70 2079 2035 _________O____ -1 -15.20 76.70 TC 8 252
1881 SI MM 03:00:00 TS -15.34 76.30 2035 1987 _________P____ -1 -15.34 76.30 TC 8 249
1881 SI MM 06:00:00 TS -15.50 75.90 1987 1953 _________O____ -1 -15.50 75.90 TC 8 247
1881 SI MM 09:00:00 TS -15.66 75.53 1940 1906 _________P____ -1 -15.66 75.53 TC 7 246
1881 SI MM 12:00:00 TS -15.80 75.20 1906 1872 _________O____ -1 -15.80 75.20 TC 7 249
1881 SI MM 15:00:00 TS -15.90 74.89 1872 1838 _________P____ -1 -15.90 74.89 TC 6 251
1881 SI MM 18:00:00 TS -16.00 74.60 1838 1804 _________O____ -1 -16.00 74.60 TC 6 247
1881 SI MM 21:00:00 TS -16.14 74.30 1804 1767 _________P____ -1 -16.14 74.30 TC 7 242
1881 SI MM 1881-02-13 00:00:00 TS -16.30 74.00 1767 1733 _________O____ -1 -16.30 74.00 TC 7 242
1881 SI MM 03:00:00 TS -16.45 73.70 1733 1696 _________P____ -1 -16.45 73.70 TC 7 242
1881 SI MM 06:00:00 TS -16.60 73.40 1696 1662 _________O____ -1 -16.60 73.40 TC 7 242
1881 SI MM 09:00:00 TS -16.75 73.10 1662 1625 _________P____ -1 -16.75 73.10 TC 6 242
1881 SI MM 12:00:00 TS -16.90 72.80 1625 1591 _________O____ -1 -16.90 72.80 TC 7 242
1881 SI MM 15:00:00 TS -17.06 72.50 1588 1554 _________P____ -1 -17.06 72.50 TC 6 242
1881 SI MM 18:00:00 TS -17.20 72.20 1554 1521 _________O____ -1 -17.20 72.20 TC 6 247
1881 SI MM 21:00:00 TS -17.29 71.93 1521 1487 _________P____ -1 -17.29 71.93 TC 6 251
1881 SI MM 1881-02-14 00:00:00 TS -17.40 71.60 1487 1440 _________O____ -1 -17.40 71.60 TC 8 250
1881 SI MM 03:00:00 TS -17.58 71.12 1430 1373 _________P____ -1 -17.58 71.12 TC 10 247
1881 SI MM 06:00:00 TS -17.80 70.60 1373 1327 _________O____ -1 -17.80 70.60 TC 10 243
1881 SI MM 09:00:00 TS -18.05 70.15 1317 1268 _________P____ -1 -18.05 70.15 TC 10 240
1881 SI MM 12:00:00 TS -18.30 69.70 1268 1212 _________O____ -1 -18.30 69.70 TC 10 243
1881 SI MM 15:00:00 TS -18.50 69.21 1212 1156 _________P____ -1 -18.50 69.21 TC 10 247
1881 SI MM 18:00:00 TS -18.70 68.70 1156 1100 _________O____ -1 -18.70 68.70 TC 11 245
1881 SI MM 21:00:00 TS -18.95 68.18 1098 1043 _________P____ -1 -18.95 68.18 TC 11 242
1881 SI MM 1881-02-15 00:00:00 TS -19.20 67.70 1043 1008 _________O____ -1 -19.20 67.70 TC 9 240
1881 SI MM 03:00:00 TS -19.41 67.33 998 964 _________P____ -1 -19.41 67.33 TC 8 239
1881 SI MM 06:00:00 TS -19.60 67.00 964 920 _________O____ -1 -19.60 67.00 TC 8 240
1881 SI MM 09:00:00 TS -19.80 66.61 920 877 _________P____ -1 -19.80 66.61 TC 9 242
1881 SI MM 12:00:00 TS -20.00 66.20 877 834 _________O____ -1 -20.00 66.20 TC 9 242
1881 SI MM 15:00:00 TS -20.21 65.80 834 792 _________P____ -1 -20.21 65.80 TC 9 242
1881 SI MM 18:00:00 TS -20.40 65.40 792 750 _________O____ -1 -20.40 65.40 TC 8 245
1881 SI MM 21:00:00 TS -20.55 65.02 750 709 _________P____ -1 -20.55 65.02 TC 8 248
1881 SI MM 1881-02-16 00:00:00 TS -20.70 64.60 709 659 _________O____ -1 -20.70 64.60 TC 10 249
1881 SI MM 03:00:00 TS -20.89 64.06 659 599 _________P____ -1 -20.89 64.06 TC 11 249
1881 SI MM 06:00:00 TS -21.10 63.50 599 551 _________O____ -1 -21.10 63.50 TC 11 245
1881 SI MM 09:00:00 TS -21.35 62.99 551 509 _________P____ -1 -21.35 62.99 TC 11 242
1881 SI MM 12:00:00 TS -21.60 62.50 509 466 _________O____ -1 -21.60 62.50 TC 10 244
1881 SI MM 15:00:00 TS -21.80 61.99 466 427 _________P____ -1 -21.80 61.99 TC 10 247
1881 SI MM 18:00:00 TS -22.00 61.50 427 400 _________O____ -1 -22.00 61.50 TC 10 243
1881 SI MM 21:00:00 TS -22.25 61.03 390 374 _________P____ -1 -22.25 61.03 TC 10 239
1881 SI MM 1881-02-17 00:00:00 TS -22.50 60.60 374 356 _________O____ -1 -22.50 60.60 TC 9 240
1881 SI MM 03:00:00 TS -22.71 60.18 356 343 _________P____ -1 -22.71 60.18 TC 8 242
1881 SI MM 06:00:00 TS -22.90 59.80 345 335 _________O____ -1 -22.90 59.80 TC 8 240
1881 SI MM 09:00:00 TS -23.09 59.46 344 339 _________P____ -1 -23.09 59.46 TC 8 238
1881 SI MM 12:00:00 TS -23.30 59.10 344 340 _________O____ -1 -23.30 59.10 TC 9 239
1881 SI MM 15:00:00 TS -23.54 58.66 350 350 _________P____ -1 -23.54 58.66 TC 10 239
1881 SI MM 18:00:00 TS -23.80 58.20 372 364 _________O____ -1 -23.80 58.20 TC 9 238
1881 SI MM 21:00:00 TS -24.05 57.78 364 363 _________P____ -1 -24.05 57.78 TC 9 236
1881 SI MM 1881-02-18 00:00:00 TS -24.30 57.40 372 367 _________O____ -1 -24.30 57.40 TC 8 233
1881 SI MM 03:00:00 TS -24.56 57.04 385 381 _________P____ -1 -24.56 57.04 TC 8 232
1881 SI MM 06:00:00 TS -24.80 56.70 396 393 _________O____ -1 -24.80 56.70 TC 8 235
1881 SI MM 09:00:00 TS -25.00 56.35 408 408 _________P____ -1 -25.00 56.35 TC 8 238
1881 SI MM 12:00:00 TS -25.20 56.00 426 425 _________O____ -1 -25.20 56.00 TC 8 234
1881 SI MM 15:00:00 TS -25.45 55.66 447 447 _________P____ -1 -25.45 55.66 TC 8 232
1881 SI MM 18:00:00 TS -25.70 55.30 481 481 _________O____ -1 -25.70 55.30 TC 8 236
1881 SI MM 21:00:00 TS -25.91 54.91 507 507 _________P____ -1 -25.91 54.91 TC 8 241
1881 SI MM 1881-02-19 00:00:00 TS -26.10 54.50 537 _________O____ -1 -26.10 54.50 TC 8 243